Terminal Aerodrome Forecast
Issued by NWS Rapid City, SD

Home | Current Version | Previous Version | Text Only | Print | Product List | Glossary Off
Versions: 1 2 3 4 5 6 7 8 9 10 11 12 13 14

000
FTUS43 KUNR 262300
TAFRAP
TAF
KRAP 262320Z 2700/2724 VRB05KT P6SM SKC
     FM271000 14010KT P6SM SKC
     FM271700 17016G26KT P6SM SKC=

USA.gov is the U.S. government's official web portal to all federal, state and local government web resources and services.